createdAt,value
2022-08-11T00:02:35.390Z,19.50
2022-08-11T00:05:17.226Z,19.40
2022-08-11T00:07:45.036Z,19.40
2022-08-11T00:10:17.278Z,19.30
2022-08-11T00:12:45.162Z,19.30
2022-08-11T00:15:12.219Z,19.30
2022-08-11T00:17:39.115Z,19.20
2022-08-11T00:20:11.513Z,19.20
2022-08-11T00:22:44.099Z,19.10
2022-08-11T00:25:12.874Z,19.10
2022-08-11T00:27:40.299Z,19.00
2022-08-11T00:30:11.771Z,19.00
2022-08-11T00:32:39.653Z,18.90
2022-08-11T00:35:51.012Z,19.30
2022-08-11T00:37:57.939Z,18.90
2022-08-11T00:40:45.477Z,18.80
2022-08-11T00:43:49.751Z,18.80
2022-08-11T00:46:21.671Z,18.80
2022-08-11T00:49:00.783Z,18.70
2022-08-11T00:52:05.457Z,18.70
2022-08-11T00:54:39.108Z,18.70
2022-08-11T00:57:39.897Z,18.60
2022-08-11T01:00:13.383Z,18.60
2022-08-11T01:02:46.007Z,18.60
2022-08-11T01:05:25.074Z,18.50
2022-08-11T01:08:26.233Z,18.50
2022-08-11T01:11:02.427Z,18.50
2022-08-11T01:13:43.785Z,18.20
2022-08-11T01:16:36.319Z,18.40
2022-08-11T01:19:29.174Z,18.40
2022-08-11T01:22:03.632Z,18.30
2022-08-11T01:25:03.354Z,18.30
2022-08-11T01:27:45.072Z,18.30
2022-08-11T01:30:39.844Z,18.20
2022-08-11T01:33:25.544Z,18.20
2022-08-11T01:39:22.454Z,18.70
2022-08-11T01:42:24.480Z,18.10
2022-08-11T01:44:54.020Z,18.10
2022-08-11T01:47:53.359Z,18.10
2022-08-11T01:50:26.740Z,18.00
2022-08-11T01:53:08.611Z,18.00
2022-08-11T01:55:47.370Z,17.90
2022-08-11T01:58:15.226Z,17.90
2022-08-11T02:01:12.137Z,17.90
2022-08-11T02:04:06.870Z,17.60
2022-08-11T02:06:55.587Z,17.80
2022-08-11T02:09:49.611Z,17.80
2022-08-11T02:12:27.376Z,17.80
2022-08-11T02:15:04.921Z,17.70
2022-08-11T02:17:59.337Z,17.70
2022-08-11T02:21:07.346Z,17.70
2022-08-11T02:24:06.642Z,17.70
2022-08-11T02:26:57.697Z,17.70
2022-08-11T02:29:35.487Z,17.70
2022-08-11T02:32:48.578Z,17.60
2022-08-11T02:35:42.863Z,17.60
2022-08-11T02:38:43.400Z,17.60
2022-08-11T02:41:58.391Z,17.60
2022-08-11T02:44:30.023Z,17.60
2022-08-11T02:47:22.157Z,17.60
2022-08-11T02:50:07.950Z,17.60
2022-08-11T02:53:03.011Z,17.50
2022-08-11T02:55:44.542Z,17.50
2022-08-11T02:58:39.379Z,17.50
2022-08-11T03:01:27.932Z,17.40
2022-08-11T03:04:07.195Z,17.40
2022-08-11T03:06:39.108Z,17.40
2022-08-11T03:09:28.006Z,17.40
2022-08-11T03:12:20.940Z,17.30
2022-08-11T03:15:16.749Z,17.40
2022-08-11T03:18:04.068Z,17.30
2022-08-11T03:20:38.227Z,17.30
2022-08-11T03:23:25.080Z,17.30
2022-08-11T03:26:16.684Z,17.30
2022-08-11T03:29:06.701Z,17.20
2022-08-11T03:31:57.141Z,17.20
2022-08-11T03:34:25.871Z,17.20
2022-08-11T03:37:17.918Z,17.20
2022-08-11T03:40:03.352Z,17.20
2022-08-11T03:42:57.934Z,17.10
2022-08-11T03:45:40.810Z,17.10
2022-08-11T03:48:17.171Z,17.10
2022-08-11T03:51:05.299Z,17.20
2022-08-11T03:54:20.429Z,17.00
2022-08-11T03:57:12.528Z,17.00
2022-08-11T04:00:17.490Z,17.00
2022-08-11T04:03:08.319Z,17.00
2022-08-11T04:06:02.468Z,17.00
2022-08-11T04:09:00.131Z,17.00
2022-08-11T04:11:35.937Z,17.00
2022-08-11T04:14:40.392Z,17.00
2022-08-11T04:17:40.580Z,16.90
2022-08-11T04:20:24.068Z,17.00
2022-08-11T04:24:36.493Z,16.90
2022-08-11T04:26:47.434Z,16.90
2022-08-11T04:30:03.977Z,16.90
2022-08-11T04:32:44.596Z,16.90
2022-08-11T04:35:29.637Z,16.90
2022-08-11T04:38:09.306Z,16.90
2022-08-11T04:41:16.350Z,16.90
2022-08-11T04:44:06.070Z,16.90
2022-08-11T04:46:38.507Z,16.90
2022-08-11T04:50:03.677Z,16.90
2022-08-11T04:53:33.482Z,16.80
2022-08-11T04:56:30.604Z,16.80
2022-08-11T04:59:40.046Z,16.80
2022-08-11T05:02:22.409Z,16.80
2022-08-11T05:05:15.864Z,16.80
2022-08-11T05:08:15.304Z,16.80
2022-08-11T05:10:48.160Z,16.90
2022-08-11T05:13:56.129Z,16.80
2022-08-11T05:16:46.440Z,16.90
2022-08-11T05:19:38.979Z,16.90
2022-08-11T05:22:26.715Z,16.80
2022-08-11T05:26:44.508Z,16.90
2022-08-11T05:29:20.421Z,16.90
2022-08-11T05:32:10.439Z,16.90
2022-08-11T05:34:54.903Z,17.00
2022-08-11T05:37:33.154Z,17.10
2022-08-11T05:40:31.774Z,17.10
2022-08-11T05:43:31.508Z,17.10
2022-08-11T05:46:23.984Z,17.20
2022-08-11T05:49:09.494Z,17.20
2022-08-11T05:52:04.941Z,17.30
2022-08-11T05:54:58.070Z,17.30
2022-08-11T05:57:39.570Z,17.40
2022-08-11T06:00:17.665Z,17.40
2022-08-11T06:02:55.416Z,17.50
2022-08-11T06:05:22.726Z,17.60
2022-08-11T06:07:54.143Z,17.60
2022-08-11T06:10:35.295Z,17.70
2022-08-11T06:13:02.615Z,17.80
2022-08-11T06:15:32.596Z,17.80
2022-08-11T06:18:00.131Z,17.90
2022-08-11T06:20:27.232Z,18.10
2022-08-11T06:23:03.829Z,18.10
2022-08-11T06:25:32.099Z,18.30
2022-08-11T06:27:59.126Z,18.40
2022-08-11T06:30:42.838Z,18.50
2022-08-11T06:33:30.752Z,18.60
2022-08-11T06:36:04.838Z,18.70
2022-08-11T06:38:56.861Z,18.90
2022-08-11T06:41:32.596Z,19.00
2022-08-11T06:44:14.718Z,19.10
2022-08-11T06:46:51.090Z,19.20
2022-08-11T06:49:40.822Z,19.30
2022-08-11T06:52:34.468Z,19.40
2022-08-11T06:55:06.325Z,19.50
2022-08-11T06:57:53.230Z,19.60
2022-08-11T07:00:29.521Z,19.70
2022-08-11T07:03:12.905Z,19.70
2022-08-11T07:05:43.820Z,19.80
2022-08-11T07:08:51.156Z,19.80
2022-08-11T07:12:06.020Z,19.80
2022-08-11T07:14:51.380Z,19.80
2022-08-11T07:17:21.289Z,19.90
2022-08-11T07:20:13.986Z,19.90
2022-08-11T07:23:00.383Z,20.00
2022-08-11T07:25:45.658Z,20.00
2022-08-11T07:28:36.698Z,20.10
2022-08-11T07:31:21.550Z,20.10
2022-08-11T07:34:08.409Z,20.30
2022-08-11T07:36:41.327Z,20.30
2022-08-11T07:39:11.367Z,20.40
2022-08-11T07:41:39.210Z,20.50
2022-08-11T07:44:11.781Z,20.50
2022-08-11T07:47:01.386Z,20.60
2022-08-11T07:49:50.632Z,20.70
2022-08-11T07:52:26.802Z,20.70
2022-08-11T07:54:54.692Z,20.70
2022-08-11T07:58:05.561Z,20.80
2022-08-11T08:00:45.651Z,20.90
2022-08-11T08:03:36.723Z,21.00
2022-08-11T08:06:36.005Z,21.10
2022-08-11T08:09:22.539Z,21.10
2022-08-11T08:12:08.071Z,21.20
2022-08-11T08:14:53.515Z,21.20
2022-08-11T08:18:09.040Z,21.30
2022-08-11T08:20:46.733Z,21.40
2022-08-11T08:23:13.789Z,21.30
2022-08-11T08:25:41.376Z,21.60
2022-08-11T08:28:16.065Z,21.70
2022-08-11T08:30:51.214Z,21.80
2022-08-11T08:33:28.342Z,21.90
2022-08-11T08:36:15.559Z,22.00
2022-08-11T08:38:54.276Z,22.20
2022-08-11T08:41:39.432Z,22.30
2022-08-11T08:44:35.200Z,22.40
2022-08-11T08:47:00.757Z,22.50
2022-08-11T08:49:34.331Z,22.60
2022-08-11T08:52:31.761Z,22.80
2022-08-11T08:54:57.098Z,22.90
2022-08-11T08:57:24.455Z,23.10
2022-08-11T08:59:51.769Z,23.10
2022-08-11T09:02:34.265Z,23.30
2022-08-11T09:05:11.804Z,23.40
2022-08-11T09:07:40.567Z,23.50
2022-08-11T09:10:10.205Z,23.70
2022-08-11T09:12:38.870Z,23.70
2022-08-11T09:15:08.092Z,23.90
2022-08-11T09:17:36.370Z,24.00
2022-08-11T09:20:22.854Z,24.10
2022-08-11T09:26:19.331Z,24.40
2022-08-11T09:28:46.816Z,24.70
2022-08-11T09:31:14.462Z,24.90
2022-08-11T09:33:42.862Z,25.00
2022-08-11T09:36:29.071Z,25.20
2022-08-11T09:39:14.154Z,25.30
2022-08-11T09:42:01.099Z,25.60
2022-08-11T09:44:47.473Z,26.00
2022-08-11T09:47:19.337Z,26.40
2022-08-11T09:49:47.071Z,26.80
2022-08-11T09:52:14.390Z,27.20
2022-08-11T09:54:42.098Z,27.60
2022-08-11T09:57:33.507Z,27.90
2022-08-11T10:00:12.698Z,28.30
2022-08-11T10:02:48.948Z,28.60
2022-08-11T10:05:36.709Z,28.80
2022-08-11T10:08:04.428Z,29.00
2022-08-11T10:10:31.348Z,29.30
2022-08-11T10:13:03.004Z,29.50
2022-08-11T10:15:38.352Z,29.80
2022-08-11T10:18:32.758Z,30.00
2022-08-11T10:21:06.883Z,30.30
2022-08-11T10:24:00.827Z,30.50
2022-08-11T10:26:51.266Z,30.80
2022-08-11T10:29:57.333Z,31.20
2022-08-11T10:32:57.493Z,31.50
2022-08-11T10:35:26.418Z,31.70
2022-08-11T10:38:08.492Z,32.00
2022-08-11T10:40:45.940Z,32.00
2022-08-11T10:43:56.854Z,32.20
2022-08-11T10:46:30.275Z,32.30
2022-08-11T10:48:58.132Z,32.60
2022-08-11T10:51:51.116Z,32.80
2022-08-11T10:54:37.864Z,32.90
2022-08-11T10:57:23.722Z,33.10
2022-08-11T10:59:50.707Z,33.30
2022-08-11T11:02:18.968Z,33.50
2022-08-11T11:05:28.601Z,33.80
2022-08-11T11:08:03.954Z,34.10
2022-08-11T11:10:31.002Z,34.30
2022-08-11T11:13:16.761Z,34.50
2022-08-11T11:16:04.335Z,34.60
2022-08-11T11:18:36.022Z,34.80
2022-08-11T11:21:07.923Z,35.00
2022-08-11T11:23:39.659Z,35.20
2022-08-11T11:26:28.151Z,35.20
2022-08-11T11:29:22.536Z,35.40
2022-08-11T11:32:09.023Z,35.70
2022-08-11T11:34:52.929Z,35.90
2022-08-11T11:37:24.648Z,36.20
2022-08-11T11:39:54.594Z,36.30
2022-08-11T11:42:24.435Z,36.50
2022-08-11T11:44:55.303Z,36.80
2022-08-11T11:47:23.240Z,37.10
2022-08-11T11:49:50.389Z,37.30
2022-08-11T11:52:19.803Z,37.30
2022-08-11T11:54:51.968Z,37.40
2022-08-11T11:57:38.273Z,37.50
2022-08-11T12:00:33.459Z,37.40
2022-08-11T12:03:02.920Z,37.90
2022-08-11T12:05:30.459Z,37.60
2022-08-11T12:08:16.059Z,37.70
2022-08-11T12:11:14.303Z,37.80
2022-08-11T12:13:46.086Z,37.80
2022-08-11T12:16:34.336Z,37.80
2022-08-11T12:19:01.782Z,37.70
2022-08-11T12:21:29.544Z,37.80
2022-08-11T12:24:16.272Z,37.90
2022-08-11T12:26:45.674Z,38.10
2022-08-11T12:29:32.597Z,38.30
2022-08-11T12:32:00.611Z,38.40
2022-08-11T12:34:27.883Z,38.60
2022-08-11T12:36:59.041Z,38.80
2022-08-11T12:40:16.373Z,38.80
2022-08-11T12:42:55.370Z,38.80
2022-08-11T12:45:31.452Z,38.80
2022-08-11T12:48:57.944Z,38.80
2022-08-11T12:52:00.820Z,38.80
2022-08-11T12:54:36.938Z,39.00
2022-08-11T12:57:37.431Z,39.10
2022-08-11T13:00:26.460Z,39.20
2022-08-11T13:03:12.433Z,39.20
2022-08-11T13:05:40.200Z,39.20
2022-08-11T13:08:13.962Z,39.30
2022-08-11T13:10:59.783Z,39.40
2022-08-11T13:13:54.825Z,39.50
2022-08-11T13:16:15.093Z,39.70
2022-08-11T13:18:42.930Z,39.70
2022-08-11T13:21:20.515Z,39.70
2022-08-11T13:24:01.628Z,39.50
2022-08-11T13:26:45.022Z,39.50
2022-08-11T13:29:20.702Z,39.50
2022-08-11T13:31:47.702Z,39.30
2022-08-11T13:34:16.310Z,39.30
2022-08-11T13:36:43.357Z,39.50
2022-08-11T13:39:13.452Z,39.50
2022-08-11T13:41:42.087Z,39.60
2022-08-11T13:44:10.476Z,39.80
2022-08-11T13:46:37.987Z,40.00
2022-08-11T13:49:09.174Z,40.20
2022-08-11T13:54:38.459Z,39.70
2022-08-11T13:57:09.116Z,39.50
2022-08-11T13:59:49.942Z,39.50
2022-08-11T14:02:28.670Z,39.40
2022-08-11T14:05:12.364Z,39.50
2022-08-11T14:07:40.112Z,39.40
2022-08-11T14:10:07.796Z,39.10
2022-08-11T14:12:56.372Z,39.10
2022-08-11T14:15:29.297Z,39.10
2022-08-11T14:18:36.065Z,39.00
2022-08-11T14:21:23.317Z,39.10
2022-08-11T14:23:59.451Z,39.20
2022-08-11T14:26:28.674Z,39.10
2022-08-11T14:29:09.190Z,39.10
2022-08-11T14:31:49.064Z,39.10
2022-08-11T14:34:15.972Z,39.00
2022-08-11T14:36:45.591Z,38.90
2022-08-11T14:39:21.581Z,38.70
2022-08-11T14:42:17.021Z,38.70
2022-08-11T14:45:03.731Z,38.70
2022-08-11T14:47:33.164Z,38.80
2022-08-11T14:50:10.879Z,38.80
2022-08-11T14:52:43.410Z,38.80
2022-08-11T14:55:29.295Z,38.90
2022-08-11T14:57:57.018Z,38.80
2022-08-11T15:00:24.282Z,38.80
2022-08-11T15:03:10.091Z,38.70
2022-08-11T15:05:41.291Z,38.60
2022-08-11T15:08:08.769Z,38.40
2022-08-11T15:10:36.630Z,38.30
2022-08-11T15:13:03.708Z,38.30
2022-08-11T15:15:48.887Z,38.30
2022-08-11T15:18:16.954Z,38.40
2022-08-11T15:21:02.476Z,38.40
2022-08-11T15:23:48.897Z,38.30
2022-08-11T15:26:20.095Z,38.10
2022-08-11T15:29:06.737Z,37.80
2022-08-11T15:31:49.330Z,37.60
2022-08-11T15:34:36.103Z,37.40
2022-08-11T15:37:31.559Z,37.10
2022-08-11T15:40:31.657Z,36.80
2022-08-11T15:43:29.440Z,36.40
2022-08-11T15:46:02.267Z,35.90
2022-08-11T15:48:42.122Z,35.30
2022-08-11T15:51:17.727Z,34.90
2022-08-11T15:53:58.486Z,34.40
2022-08-11T15:56:26.799Z,34.00
2022-08-11T15:59:41.945Z,33.70
2022-08-11T16:02:19.116Z,33.50
2022-08-11T16:04:46.175Z,33.10
2022-08-11T16:07:26.736Z,32.90
2022-08-11T16:10:00.104Z,32.80
2022-08-11T16:12:29.424Z,32.60
2022-08-11T16:15:22.389Z,32.40
2022-08-11T16:17:51.664Z,32.30
2022-08-11T16:20:22.101Z,32.10
2022-08-11T16:22:57.212Z,31.90
2022-08-11T16:27:03.580Z,31.90
2022-08-11T16:28:16.967Z,31.90
2022-08-11T16:30:46.751Z,32.00
2022-08-11T16:33:48.890Z,32.10
2022-08-11T16:36:19.568Z,32.20
2022-08-11T16:38:49.378Z,32.50
2022-08-11T16:41:37.325Z,32.70
2022-08-11T16:44:32.516Z,32.90
2022-08-11T16:47:08.557Z,33.10
2022-08-11T16:49:37.428Z,33.30
2022-08-11T16:52:08.518Z,33.50
2022-08-11T16:54:35.832Z,33.50
2022-08-11T16:57:36.905Z,33.50
2022-08-11T17:00:07.006Z,33.50
2022-08-11T17:03:07.548Z,33.50
2022-08-11T17:05:55.241Z,33.50
2022-08-11T17:08:54.265Z,33.60
2022-08-11T17:11:45.728Z,33.60
2022-08-11T17:14:18.204Z,33.60
2022-08-11T17:17:03.938Z,33.60
2022-08-11T17:20:40.834Z,33.50
2022-08-11T17:22:38.199Z,33.40
2022-08-11T17:25:05.807Z,33.30
2022-08-11T17:27:33.592Z,33.30
2022-08-11T17:30:03.037Z,33.20
2022-08-11T17:33:00.498Z,33.20
2022-08-11T17:35:35.537Z,33.00
2022-08-11T17:38:06.575Z,33.00
2022-08-11T17:40:37.143Z,32.80
2022-08-11T17:43:30.563Z,32.80
2022-08-11T17:46:16.140Z,32.70
2022-08-11T17:48:47.947Z,32.40
2022-08-11T17:51:37.723Z,32.10
2022-08-11T17:54:25.377Z,31.80
2022-08-11T17:57:20.170Z,31.50
2022-08-11T17:59:57.098Z,31.30
2022-08-11T18:02:51.841Z,31.00
2022-08-11T18:05:20.108Z,30.70
2022-08-11T18:08:06.372Z,29.80
2022-08-11T18:10:52.065Z,30.70
2022-08-11T18:13:41.839Z,29.90
2022-08-11T18:16:28.191Z,29.80
2022-08-11T18:19:13.824Z,29.60
2022-08-11T18:22:12.861Z,29.40
2022-08-11T18:25:05.868Z,29.30
2022-08-11T18:27:55.743Z,29.10
2022-08-11T18:30:41.846Z,28.90
2022-08-11T18:36:45.797Z,28.70
2022-08-11T18:39:32.021Z,28.50
2022-08-11T18:42:29.342Z,28.40
2022-08-11T18:45:21.759Z,28.30
2022-08-11T18:48:11.304Z,28.10
2022-08-11T18:51:28.883Z,28.10
2022-08-11T18:54:03.047Z,28.00
2022-08-11T18:56:49.414Z,27.90
2022-08-11T18:59:35.920Z,27.80
2022-08-11T19:02:25.289Z,27.70
2022-08-11T19:05:12.287Z,27.60
2022-08-11T19:07:57.716Z,27.50
2022-08-11T19:10:45.005Z,27.30
2022-08-11T19:13:31.438Z,27.20
2022-08-11T19:16:16.585Z,27.10
2022-08-11T19:19:02.362Z,27.00
2022-08-11T19:21:48.233Z,26.80
2022-08-11T19:24:33.953Z,26.70
2022-08-11T19:27:20.406Z,26.60
2022-08-11T19:30:13.297Z,26.50
2022-08-11T19:32:59.776Z,26.40
2022-08-11T19:35:45.466Z,26.30
2022-08-11T19:38:32.786Z,26.20
2022-08-11T19:41:41.326Z,26.10
2022-08-11T19:44:24.248Z,25.90
2022-08-11T19:47:10.040Z,25.80
2022-08-11T19:49:56.337Z,25.70
2022-08-11T19:52:42.311Z,25.70
2022-08-11T19:55:29.221Z,25.60
2022-08-11T19:58:18.160Z,25.40
2022-08-11T20:01:03.644Z,25.40
2022-08-11T20:03:48.884Z,25.30
2022-08-11T20:06:34.300Z,25.20
2022-08-11T20:09:20.397Z,25.10
2022-08-11T20:12:08.650Z,25.00
2022-08-11T20:14:55.775Z,24.90
2022-08-11T20:17:45.647Z,24.80
2022-08-11T20:20:32.270Z,24.70
2022-08-11T20:23:22.731Z,24.60
2022-08-11T20:26:29.814Z,24.50
2022-08-11T20:29:15.306Z,24.40
2022-08-11T20:32:00.385Z,24.30
2022-08-11T20:34:49.377Z,24.30
2022-08-11T20:37:38.606Z,24.20
2022-08-11T20:40:24.570Z,24.10
2022-08-11T20:44:05.074Z,24.00
2022-08-11T20:46:16.582Z,23.90
2022-08-11T20:49:02.565Z,23.90
2022-08-11T20:51:48.234Z,23.80
2022-08-11T20:54:43.588Z,23.70
2022-08-11T20:57:35.622Z,23.70
2022-08-11T21:00:41.770Z,23.60
2022-08-11T21:03:35.647Z,23.50
2022-08-11T21:06:31.333Z,23.40
2022-08-11T21:09:25.122Z,23.70
2022-08-11T21:12:28.825Z,23.30
2022-08-11T21:15:14.836Z,23.30
2022-08-11T21:18:27.496Z,23.20
2022-08-11T21:24:15.684Z,23.20
2022-08-11T21:27:03.775Z,23.00
2022-08-11T21:29:50.546Z,23.10
2022-08-11T21:32:36.400Z,23.00
2022-08-11T21:35:22.687Z,22.90
2022-08-11T21:38:09.342Z,22.90
2022-08-11T21:40:55.256Z,22.80
2022-08-11T21:43:40.954Z,22.70
2022-08-11T21:46:26.190Z,22.70
2022-08-11T21:49:17.752Z,22.70
2022-08-11T21:52:03.504Z,22.60
2022-08-11T21:54:49.068Z,22.50
2022-08-11T21:57:34.849Z,22.50
2022-08-11T22:00:36.455Z,22.40
2022-08-11T22:03:22.294Z,22.30
2022-08-11T22:06:07.768Z,22.20
2022-08-11T22:08:53.490Z,22.10
2022-08-11T22:11:39.233Z,22.10
2022-08-11T22:14:24.836Z,22.00
2022-08-11T22:17:10.613Z,21.90
2022-08-11T22:19:56.334Z,21.80
2022-08-11T22:22:51.265Z,21.80
2022-08-11T22:25:41.789Z,21.80
2022-08-11T22:28:37.430Z,21.70
2022-08-11T22:31:23.408Z,21.70
2022-08-11T22:34:08.647Z,21.60
2022-08-11T22:36:53.883Z,21.60
2022-08-11T22:39:39.830Z,21.50
2022-08-11T22:42:33.201Z,21.50
2022-08-11T22:45:19.925Z,21.40
2022-08-11T22:48:06.616Z,21.30
2022-08-11T22:50:52.991Z,21.20
2022-08-11T22:53:57.441Z,21.10
2022-08-11T22:56:43.411Z,21.00
2022-08-11T22:59:28.667Z,21.00
2022-08-11T23:02:14.020Z,20.90
2022-08-11T23:04:59.262Z,20.90
2022-08-11T23:07:50.247Z,20.90
2022-08-11T23:10:37.673Z,20.80
2022-08-11T23:13:22.974Z,20.80
2022-08-11T23:16:08.694Z,20.80
2022-08-11T23:18:54.281Z,20.70
2022-08-11T23:21:40.311Z,20.70
2022-08-11T23:24:25.748Z,20.70
2022-08-11T23:27:10.997Z,20.70
2022-08-11T23:29:56.332Z,20.60
2022-08-11T23:32:41.550Z,20.60
2022-08-11T23:38:27.316Z,20.50
2022-08-11T23:41:12.718Z,20.50
2022-08-11T23:43:58.432Z,20.40
2022-08-11T23:46:43.598Z,20.40
2022-08-11T23:49:28.921Z,20.30
2022-08-11T23:52:14.306Z,20.30
2022-08-11T23:54:59.568Z,20.30
2022-08-11T23:57:48.842Z,20.20
